createdAt,value
2023-02-28T00:01:29.089Z,-0.10
2023-02-28T00:03:58.725Z,-0.10
2023-02-28T00:06:27.501Z,-0.10
2023-02-28T00:08:55.485Z,-0.10
2023-02-28T00:11:23.801Z,-0.20
2023-02-28T00:13:51.781Z,-0.20
2023-02-28T00:16:21.777Z,-0.20
2023-02-28T00:22:40.436Z,-0.20
2023-02-28T00:25:09.772Z,-0.20
2023-02-28T00:27:39.195Z,-0.20
2023-02-28T00:30:09.660Z,-0.10
2023-02-28T00:32:38.206Z,-0.10
2023-02-28T00:35:08.198Z,-0.10
2023-02-28T00:37:36.811Z,-0.10
2023-02-28T00:40:08.102Z,-0.10
2023-02-28T00:42:36.295Z,-0.10
2023-02-28T00:45:05.750Z,-0.10
2023-02-28T00:47:34.234Z,-0.10
2023-02-28T00:50:02.953Z,-0.10
2023-02-28T00:52:31.028Z,-0.10
2023-02-28T00:54:59.098Z,-0.20
2023-02-28T00:57:28.640Z,-0.20
2023-02-28T00:59:56.884Z,-0.20
2023-02-28T01:02:25.441Z,-0.20
2023-02-28T01:04:53.642Z,-0.20
2023-02-28T01:18:44.440Z,-0.40
2023-02-28T01:21:15.228Z,-0.50
2023-02-28T01:23:44.048Z,-0.50
2023-02-28T01:26:14.043Z,-0.60
2023-02-28T01:28:42.226Z,-0.60
2023-02-28T01:31:11.062Z,-0.60
2023-02-28T01:33:39.820Z,-0.60
2023-02-28T01:36:13.663Z,-0.70
2023-02-28T01:38:42.174Z,-0.70
2023-02-28T01:41:16.284Z,-0.80
2023-02-28T01:44:04.127Z,-0.80
2023-02-28T01:46:35.030Z,-0.80
2023-02-28T01:49:09.232Z,-0.90
2023-02-28T01:51:46.599Z,-0.90
2023-02-28T01:54:18.410Z,-0.90
2023-02-28T01:56:50.375Z,-1.00
2023-02-28T01:59:26.887Z,-1.00
2023-02-28T02:01:55.365Z,-1.00
2023-02-28T02:04:25.487Z,-1.10
2023-02-28T02:06:54.892Z,-1.10
2023-02-28T02:09:24.018Z,-1.20
2023-02-28T02:11:52.002Z,-1.20
2023-02-28T02:14:42.980Z,-1.20
2023-02-28T02:17:21.162Z,-1.20
2023-02-28T02:20:18.230Z,-1.20
2023-02-28T02:23:29.100Z,-1.30
2023-02-28T02:26:02.808Z,-1.30
2023-02-28T02:28:55.413Z,-1.30
2023-02-28T02:31:43.942Z,-1.30
2023-02-28T02:34:41.635Z,-1.30
2023-02-28T02:37:17.455Z,-1.30
2023-02-28T02:39:53.735Z,-1.40
2023-02-28T02:42:28.519Z,-1.40
2023-02-28T02:45:03.259Z,-1.40
2023-02-28T02:47:33.901Z,-1.40
2023-02-28T02:50:06.649Z,-1.40
2023-02-28T02:52:40.997Z,-1.40
2023-02-28T02:55:12.054Z,-1.40
2023-02-28T02:57:45.823Z,-1.40
2023-02-28T03:00:15.992Z,-1.40
2023-02-28T03:02:46.628Z,-1.50
2023-02-28T03:05:21.784Z,-1.50
2023-02-28T03:07:49.691Z,-1.50
2023-02-28T03:10:42.133Z,-1.60
2023-02-28T03:13:44.368Z,-1.60
2023-02-28T03:16:47.662Z,-1.60
2023-02-28T03:19:53.798Z,-1.60
2023-02-28T03:22:40.407Z,-1.60
2023-02-28T03:25:14.413Z,-1.70
2023-02-28T03:27:48.105Z,-1.70
2023-02-28T03:30:24.462Z,-1.70
2023-02-28T03:32:57.122Z,-1.70
2023-02-28T03:35:27.442Z,-1.70
2023-02-28T03:38:03.488Z,-1.60
2023-02-28T03:40:35.331Z,-1.60
2023-02-28T03:43:12.155Z,-1.70
2023-02-28T03:45:41.922Z,-1.60
2023-02-28T03:48:15.301Z,-1.60
2023-02-28T03:50:45.929Z,-1.60
2023-02-28T03:53:18.111Z,-1.60
2023-02-28T03:55:50.568Z,-1.60
2023-02-28T03:58:23.816Z,-1.60
2023-02-28T04:00:57.462Z,-1.60
2023-02-28T04:03:25.546Z,-1.60
2023-02-28T04:05:55.284Z,-1.60
2023-02-28T04:08:24.951Z,-1.60
2023-02-28T04:10:58.900Z,-1.60
2023-02-28T04:13:26.824Z,-1.60
2023-02-28T04:15:54.763Z,-1.70
2023-02-28T04:18:22.871Z,-1.70
2023-02-28T04:20:51.149Z,-1.70
2023-02-28T04:23:19.554Z,-1.70
2023-02-28T04:25:48.881Z,-1.80
2023-02-28T04:28:16.813Z,-1.80
2023-02-28T04:30:44.768Z,-1.80
2023-02-28T04:33:12.754Z,-1.90
2023-02-28T04:35:40.715Z,-1.80
2023-02-28T04:38:08.729Z,-1.80
2023-02-28T04:40:37.881Z,-1.80
2023-02-28T04:43:07.249Z,-1.80
2023-02-28T04:45:35.225Z,-1.80
2023-02-28T04:48:03.431Z,-1.80
2023-02-28T04:50:31.424Z,-1.80
2023-02-28T04:52:59.678Z,-1.90
2023-02-28T04:55:28.742Z,-1.80
2023-02-28T04:57:56.682Z,-1.80
2023-02-28T05:00:26.377Z,-1.90
2023-02-28T05:02:54.305Z,-1.90
2023-02-28T05:05:22.438Z,-1.90
2023-02-28T05:07:50.398Z,-1.90
2023-02-28T05:10:18.898Z,-2.00
2023-02-28T05:12:46.788Z,-2.00
2023-02-28T05:15:15.993Z,-2.00
2023-02-28T05:17:45.468Z,-1.90
2023-02-28T05:20:15.598Z,-1.90
2023-02-28T05:22:44.313Z,-1.90
2023-02-28T05:25:14.436Z,-1.90
2023-02-28T05:27:42.294Z,-1.90
2023-02-28T05:30:12.274Z,-1.90
2023-02-28T05:32:43.641Z,-1.90
2023-02-28T05:35:13.891Z,-1.90
2023-02-28T05:37:41.876Z,-1.80
2023-02-28T05:40:12.131Z,-1.80
2023-02-28T05:42:40.644Z,-1.70
2023-02-28T05:45:10.058Z,-1.70
2023-02-28T05:47:38.151Z,-1.70
2023-02-28T05:50:07.202Z,-1.60
2023-02-28T05:52:36.424Z,-1.60
2023-02-28T05:55:04.568Z,-1.60
2023-02-28T05:57:32.562Z,-1.60
2023-02-28T06:00:00.387Z,-1.60
2023-02-28T06:02:28.335Z,-1.60
2023-02-28T06:04:56.155Z,-1.50
2023-02-28T06:07:24.374Z,-1.50
2023-02-28T06:09:53.814Z,-1.50
2023-02-28T06:12:21.727Z,-1.50
2023-02-28T06:14:49.599Z,-1.40
2023-02-28T06:17:17.473Z,-1.40
2023-02-28T06:19:45.411Z,-1.40
2023-02-28T06:22:13.301Z,-1.40
2023-02-28T06:24:41.268Z,-1.40
2023-02-28T06:27:10.571Z,-1.40
2023-02-28T06:29:40.706Z,-1.40
2023-02-28T06:32:08.953Z,-1.30
2023-02-28T06:34:37.643Z,-1.30
2023-02-28T06:37:05.759Z,-1.30
2023-02-28T06:39:35.111Z,-1.30
2023-02-28T06:42:03.031Z,-1.20
2023-02-28T06:44:36.205Z,-1.20
2023-02-28T06:47:05.224Z,-1.20
2023-02-28T06:49:33.617Z,-1.20
2023-02-28T06:52:01.708Z,-1.10
2023-02-28T06:54:29.646Z,-1.10
2023-02-28T06:56:57.810Z,-1.10
2023-02-28T06:59:25.718Z,-1.10
2023-02-28T07:01:56.094Z,-1.00
2023-02-28T07:04:24.238Z,-1.00
2023-02-28T07:06:52.189Z,-0.90
2023-02-28T07:09:20.207Z,-0.90
2023-02-28T07:11:48.141Z,-0.90
2023-02-28T07:14:16.341Z,-0.90
2023-02-28T07:16:45.602Z,-0.90
2023-02-28T07:19:14.954Z,-0.90
2023-02-28T07:21:42.818Z,-0.80
2023-02-28T07:24:11.362Z,-0.80
2023-02-28T07:26:39.288Z,-0.80
2023-02-28T07:29:07.303Z,-0.70
2023-02-28T07:31:35.380Z,-0.70
2023-02-28T07:34:03.502Z,-0.60
2023-02-28T07:36:33.220Z,-0.50
2023-02-28T07:39:01.143Z,-0.50
2023-02-28T07:41:31.143Z,-0.40
2023-02-28T07:44:00.637Z,-0.40
2023-02-28T07:46:30.970Z,-0.30
2023-02-28T07:49:00.456Z,-0.20
2023-02-28T07:51:28.733Z,-0.10
2023-02-28T07:53:58.497Z,0.00
2023-02-28T07:56:27.221Z,0.10
2023-02-28T07:58:55.258Z,0.20
2023-02-28T08:01:23.382Z,0.30
2023-02-28T08:03:51.423Z,0.40
2023-02-28T08:06:21.501Z,0.50
2023-02-28T08:08:49.941Z,0.60
2023-02-28T08:11:19.854Z,0.80
2023-02-28T08:13:48.196Z,1.00
2023-02-28T08:16:18.804Z,1.20
2023-02-28T08:18:46.923Z,1.40
2023-02-28T08:21:14.961Z,1.50
2023-02-28T08:23:42.790Z,1.70
2023-02-28T08:26:10.908Z,1.80
2023-02-28T08:28:40.803Z,2.10
2023-02-28T08:31:14.426Z,2.30
2023-02-28T08:33:43.522Z,2.50
2023-02-28T08:36:11.823Z,2.80
2023-02-28T08:38:40.166Z,3.10
2023-02-28T08:41:09.866Z,3.10
2023-02-28T08:43:38.431Z,3.10
2023-02-28T08:46:08.922Z,3.30
2023-02-28T08:48:38.673Z,3.50
2023-02-28T08:51:10.404Z,3.80
2023-02-28T08:53:38.863Z,4.40
2023-02-28T08:56:09.274Z,4.90
2023-02-28T08:58:37.568Z,5.00
2023-02-28T09:01:13.142Z,5.20
2023-02-28T09:03:41.813Z,5.20
2023-02-28T09:06:10.478Z,5.20
2023-02-28T09:08:38.571Z,5.30
2023-02-28T09:11:07.606Z,5.30
2023-02-28T09:13:35.769Z,5.60
2023-02-28T09:16:06.245Z,5.80
2023-02-28T09:18:37.017Z,6.20
2023-02-28T09:21:05.793Z,6.30
2023-02-28T09:23:33.855Z,6.30
2023-02-28T09:26:01.730Z,6.30
2023-02-28T09:28:29.847Z,6.30
2023-02-28T09:30:58.605Z,6.50
2023-02-28T09:33:28.230Z,6.70
2023-02-28T09:36:02.607Z,6.80
2023-02-28T09:38:31.257Z,6.90
2023-02-28T09:41:01.621Z,6.80
2023-02-28T09:43:33.924Z,7.00
2023-02-28T09:46:08.907Z,7.10
2023-02-28T09:48:43.219Z,7.00
2023-02-28T09:51:29.061Z,6.70
2023-02-28T09:54:01.976Z,6.70
2023-02-28T09:56:33.924Z,6.90
2023-02-28T09:59:06.431Z,7.10
2023-02-28T10:01:41.218Z,7.10
2023-02-28T10:04:18.268Z,7.20
2023-02-28T10:06:51.010Z,6.80
2023-02-28T10:09:24.542Z,6.30
2023-02-28T10:11:57.157Z,6.10
2023-02-28T10:14:29.729Z,6.00
2023-02-28T10:17:01.431Z,6.10
2023-02-28T10:19:35.408Z,6.20
2023-02-28T10:22:12.592Z,6.30
2023-02-28T10:24:43.661Z,6.30
2023-02-28T10:27:17.165Z,6.70
2023-02-28T10:29:47.305Z,6.90
2023-02-28T10:32:19.462Z,7.10
2023-02-28T10:34:52.989Z,6.90
2023-02-28T10:37:22.872Z,6.80
2023-02-28T10:39:51.746Z,6.90
2023-02-28T10:42:26.906Z,6.80
2023-02-28T10:45:14.239Z,6.40
2023-02-28T10:47:54.909Z,6.50
2023-02-28T10:50:32.911Z,6.50
2023-02-28T10:53:18.016Z,6.50
2023-02-28T10:55:46.020Z,6.00
2023-02-28T10:58:24.953Z,5.90
2023-02-28T11:00:53.482Z,5.90
2023-02-28T11:03:33.075Z,6.00
2023-02-28T11:06:07.977Z,6.00
2023-02-28T11:08:47.604Z,6.20
2023-02-28T11:11:17.830Z,6.10
2023-02-28T11:13:47.835Z,6.30
2023-02-28T11:16:17.829Z,6.50
2023-02-28T11:18:51.814Z,6.80
2023-02-28T11:21:24.368Z,6.80
2023-02-28T11:23:59.626Z,6.50
2023-02-28T11:26:42.743Z,6.40
2023-02-28T11:29:21.611Z,6.40
2023-02-28T11:32:18.022Z,6.80
2023-02-28T11:34:48.362Z,6.90
2023-02-28T11:37:19.918Z,6.70
2023-02-28T11:39:49.816Z,6.70
2023-02-28T11:42:40.358Z,6.90
2023-02-28T11:45:23.858Z,7.00
2023-02-28T11:48:06.089Z,6.90
2023-02-28T11:50:50.862Z,7.20
2023-02-28T11:53:30.605Z,7.30
2023-02-28T11:56:05.896Z,7.20
2023-02-28T11:58:48.572Z,7.20
2023-02-28T12:01:37.725Z,7.20
2023-02-28T12:04:26.839Z,7.30
2023-02-28T12:07:03.568Z,7.60
2023-02-28T12:09:49.127Z,7.70
2023-02-28T12:12:29.330Z,8.10
2023-02-28T12:15:19.177Z,8.40
2023-02-28T12:18:08.655Z,8.50
2023-02-28T12:20:43.067Z,8.40
2023-02-28T12:23:33.072Z,8.30
2023-02-28T12:26:15.231Z,7.80
2023-02-28T12:28:53.000Z,7.40
2023-02-28T12:31:23.888Z,7.10
2023-02-28T12:33:55.577Z,6.90
2023-02-28T12:36:24.995Z,7.00
2023-02-28T12:38:57.843Z,7.00
2023-02-28T12:41:31.607Z,7.10
2023-02-28T12:44:05.790Z,7.30
2023-02-28T12:46:39.048Z,7.20
2023-02-28T12:49:11.449Z,7.20
2023-02-28T12:51:40.400Z,7.50
2023-02-28T12:54:16.501Z,7.80
2023-02-28T12:56:55.664Z,7.70
2023-02-28T12:59:29.916Z,7.70
2023-02-28T13:02:21.581Z,7.70
2023-02-28T13:05:28.118Z,7.50
2023-02-28T13:08:21.549Z,7.70
2023-02-28T13:10:55.224Z,7.90
2023-02-28T13:13:26.824Z,8.20
2023-02-28T13:16:05.447Z,8.20
2023-02-28T13:18:38.142Z,8.00
2023-02-28T13:21:08.013Z,8.10
2023-02-28T13:24:01.053Z,8.30
2023-02-28T13:27:32.678Z,8.00
2023-02-28T13:30:01.637Z,7.90
2023-02-28T13:32:40.095Z,8.20
2023-02-28T13:35:47.654Z,8.40
2023-02-28T13:38:37.857Z,8.40
2023-02-28T13:41:45.580Z,8.60
2023-02-28T13:44:15.553Z,8.60
2023-02-28T13:47:20.709Z,8.40
2023-02-28T13:49:51.206Z,8.40
2023-02-28T13:52:22.274Z,8.00
2023-02-28T13:55:23.609Z,8.10
2023-02-28T13:58:03.126Z,8.30
2023-02-28T14:00:43.493Z,8.20
2023-02-28T14:03:34.122Z,8.20
2023-02-28T14:06:25.991Z,8.00
2023-02-28T14:09:00.342Z,8.00
2023-02-28T14:11:34.600Z,8.00
2023-02-28T14:14:04.081Z,7.90
2023-02-28T14:16:41.407Z,7.90
2023-02-28T14:19:15.186Z,7.80
2023-02-28T14:22:00.781Z,7.80
2023-02-28T14:25:08.007Z,7.80
2023-02-28T14:27:43.018Z,7.40
2023-02-28T14:30:44.253Z,7.10
2023-02-28T14:33:24.969Z,6.80
2023-02-28T14:36:06.386Z,7.00
2023-02-28T14:38:42.189Z,7.20
2023-02-28T14:41:20.650Z,7.30
2023-02-28T14:43:54.724Z,7.50
2023-02-28T14:46:24.990Z,7.40
2023-02-28T14:48:53.398Z,7.30
2023-02-28T14:51:23.615Z,7.20
2023-02-28T14:53:58.167Z,7.30
2023-02-28T14:56:30.943Z,7.10
2023-02-28T14:58:59.597Z,6.90
2023-02-28T15:01:28.682Z,6.90
2023-02-28T15:04:02.564Z,6.70
2023-02-28T15:06:30.920Z,6.60
2023-02-28T15:09:17.267Z,6.60
2023-02-28T15:11:50.285Z,6.50
2023-02-28T15:14:22.156Z,6.50
2023-02-28T15:16:57.504Z,6.40
2023-02-28T15:19:29.936Z,6.40
2023-02-28T15:22:03.936Z,6.40
2023-02-28T15:24:41.153Z,6.30
2023-02-28T15:27:14.386Z,6.30
2023-02-28T15:29:48.745Z,6.30
2023-02-28T15:32:27.824Z,6.40
2023-02-28T15:34:55.761Z,6.20
2023-02-28T15:37:42.941Z,6.20
2023-02-28T15:40:19.171Z,6.10
2023-02-28T15:43:01.431Z,6.00
2023-02-28T15:45:35.990Z,6.00
2023-02-28T15:48:13.696Z,5.80
2023-02-28T15:50:42.263Z,5.80
2023-02-28T15:53:15.664Z,5.70
2023-02-28T15:55:45.818Z,5.60
2023-02-28T15:58:15.063Z,5.60
2023-02-28T16:00:50.382Z,5.50
2023-02-28T16:03:28.855Z,5.40
2023-02-28T16:06:28.444Z,5.30
2023-02-28T16:08:56.324Z,5.30
2023-02-28T16:11:25.647Z,5.30
2023-02-28T16:13:54.942Z,5.20
2023-02-28T16:16:25.954Z,5.10
2023-02-28T16:18:58.534Z,5.10
2023-02-28T16:21:28.131Z,5.00
2023-02-28T16:23:56.515Z,5.00
2023-02-28T16:26:28.339Z,5.00
2023-02-28T16:28:56.926Z,5.00
2023-02-28T16:31:24.873Z,4.90
2023-02-28T16:33:53.078Z,4.90
2023-02-28T16:36:26.119Z,4.90
2023-02-28T16:38:54.103Z,4.80
2023-02-28T16:41:24.428Z,4.80
2023-02-28T16:43:59.464Z,4.70
2023-02-28T16:46:32.551Z,4.60
2023-02-28T16:49:00.981Z,4.60
2023-02-28T16:51:29.537Z,4.60
2023-02-28T16:53:58.783Z,4.50
2023-02-28T16:56:27.700Z,4.50
2023-02-28T16:59:01.659Z,4.40
2023-02-28T17:01:30.574Z,4.30
2023-02-28T17:03:58.852Z,4.30
2023-02-28T17:06:30.148Z,4.20
2023-02-28T17:08:59.132Z,4.20
2023-02-28T17:11:28.276Z,4.10
2023-02-28T17:13:58.270Z,4.00
2023-02-28T17:16:30.764Z,4.00
2023-02-28T17:19:00.629Z,4.00
2023-02-28T17:21:29.733Z,3.90
2023-02-28T17:23:57.929Z,3.80
2023-02-28T17:26:27.032Z,3.80
2023-02-28T17:28:56.739Z,3.70
2023-02-28T17:31:26.926Z,3.70
2023-02-28T17:33:55.576Z,3.60
2023-02-28T17:36:25.515Z,3.60
2023-02-28T17:38:55.972Z,3.50
2023-02-28T17:41:24.077Z,3.50
2023-02-28T17:43:52.276Z,3.40
2023-02-28T17:46:23.003Z,3.40
2023-02-28T17:48:54.955Z,3.30
2023-02-28T17:51:25.252Z,3.30
2023-02-28T17:53:53.910Z,3.30
2023-02-28T17:56:25.293Z,3.20
2023-02-28T17:58:54.931Z,3.20
2023-02-28T18:01:23.728Z,3.10
2023-02-28T18:03:53.483Z,3.10
2023-02-28T18:06:24.818Z,3.00
2023-02-28T18:08:53.655Z,3.00
2023-02-28T18:11:22.960Z,3.00
2023-02-28T18:13:54.200Z,2.90
2023-02-28T18:16:39.098Z,2.90
2023-02-28T18:19:15.828Z,2.90
2023-02-28T18:21:44.491Z,2.90
2023-02-28T18:24:14.186Z,2.80
2023-02-28T18:26:42.435Z,2.80
2023-02-28T18:29:17.080Z,2.70
2023-02-28T18:31:45.048Z,2.70
2023-02-28T18:34:15.113Z,2.60
2023-02-28T18:36:43.366Z,2.60
2023-02-28T18:39:12.105Z,2.50
2023-02-28T18:41:40.461Z,2.50
2023-02-28T18:44:19.033Z,2.50
2023-02-28T18:46:47.775Z,2.40
2023-02-28T18:49:17.214Z,2.30
2023-02-28T18:51:46.500Z,2.30
2023-02-28T18:54:15.192Z,2.30
2023-02-28T18:56:43.609Z,2.20
2023-02-28T18:59:12.154Z,2.10
2023-02-28T19:01:40.877Z,2.10
2023-02-28T19:04:08.919Z,2.00
2023-02-28T19:06:39.239Z,2.00
2023-02-28T19:09:08.645Z,2.00
2023-02-28T19:11:36.967Z,2.00
2023-02-28T19:14:04.929Z,2.00
2023-02-28T19:16:33.018Z,2.00
2023-02-28T19:19:01.097Z,2.00
2023-02-28T19:21:29.326Z,1.90
2023-02-28T19:23:58.636Z,1.90
2023-02-28T19:26:27.181Z,1.90
2023-02-28T19:28:55.236Z,1.80
2023-02-28T19:31:26.031Z,1.80
2023-02-28T19:33:54.347Z,1.80
2023-02-28T19:36:23.103Z,1.70
2023-02-28T19:38:51.636Z,1.60
2023-02-28T19:41:21.246Z,1.60
2023-02-28T19:43:49.425Z,1.50
2023-02-28T19:46:18.886Z,1.50
2023-02-28T19:48:48.735Z,1.50
2023-02-28T19:53:50.565Z,1.40
2023-02-28T19:56:20.084Z,1.40
2023-02-28T19:58:48.284Z,1.30
2023-02-28T20:01:18.937Z,1.30
2023-02-28T20:03:49.431Z,1.20
2023-02-28T20:06:17.565Z,1.20
2023-02-28T20:08:45.590Z,1.10
2023-02-28T20:11:16.387Z,1.10
2023-02-28T20:13:46.142Z,1.10
2023-02-28T20:16:16.082Z,1.10
2023-02-28T20:18:46.048Z,1.00
2023-02-28T20:21:15.027Z,1.00
2023-02-28T20:23:43.804Z,1.00
2023-02-28T20:26:12.667Z,0.90
2023-02-28T20:28:41.234Z,0.90
2023-02-28T20:31:14.485Z,0.90
2023-02-28T20:33:45.545Z,0.90
2023-02-28T20:36:15.698Z,0.90
2023-02-28T20:38:43.934Z,0.90
2023-02-28T20:41:13.818Z,0.80
2023-02-28T20:43:42.343Z,0.80
2023-02-28T20:46:10.805Z,0.80
2023-02-28T20:48:40.813Z,0.80
2023-02-28T20:51:09.335Z,0.80
2023-02-28T20:53:37.357Z,0.80
2023-02-28T20:56:08.873Z,0.80
2023-02-28T20:58:38.489Z,0.80
2023-02-28T21:01:12.643Z,0.70
2023-02-28T21:03:42.026Z,0.70
2023-02-28T21:06:10.523Z,0.60
2023-02-28T21:08:39.896Z,0.50
2023-02-28T21:11:11.756Z,0.50
2023-02-28T21:13:39.889Z,0.50
2023-02-28T21:16:09.918Z,0.50
2023-02-28T21:18:38.658Z,0.50
2023-02-28T21:21:09.816Z,0.50
2023-02-28T21:23:38.066Z,0.50
2023-02-28T21:26:07.571Z,0.40
2023-02-28T21:28:35.724Z,0.40
2023-02-28T21:31:04.460Z,0.40
2023-02-28T21:33:32.781Z,0.30
2023-02-28T21:36:05.262Z,0.30
2023-02-28T21:38:35.743Z,0.30
2023-02-28T21:41:07.908Z,0.30
2023-02-28T21:43:36.072Z,0.20
2023-02-28T21:46:05.027Z,0.20
2023-02-28T21:48:33.300Z,0.30
2023-02-28T21:51:03.377Z,0.30
2023-02-28T21:53:32.243Z,0.30
2023-02-28T21:56:03.323Z,0.40
2023-02-28T21:58:31.542Z,0.50
2023-02-28T22:01:05.645Z,0.50
2023-02-28T22:03:33.575Z,0.50
2023-02-28T22:06:01.807Z,0.50
2023-02-28T22:08:29.692Z,0.50
2023-02-28T22:11:02.462Z,0.60
2023-02-28T22:13:31.810Z,0.60
2023-02-28T22:16:03.732Z,0.50
2023-02-28T22:18:31.602Z,0.50
2023-02-28T22:20:59.515Z,0.50
2023-02-28T22:23:27.694Z,0.50
2023-02-28T22:25:55.826Z,0.50
2023-02-28T22:28:24.904Z,0.50
2023-02-28T22:30:54.989Z,0.50
2023-02-28T22:33:23.435Z,0.40
2023-02-28T22:35:51.800Z,0.40
2023-02-28T22:38:20.547Z,0.40
2023-02-28T22:40:48.473Z,0.30
2023-02-28T22:43:16.417Z,0.30
2023-02-28T22:45:44.364Z,0.30
2023-02-28T22:48:13.583Z,0.30
2023-02-28T22:50:41.546Z,0.30
2023-02-28T22:53:09.473Z,0.30
2023-02-28T22:55:37.404Z,0.30
2023-02-28T22:58:05.285Z,0.30
2023-02-28T23:00:33.200Z,0.30
2023-02-28T23:03:01.141Z,0.30
2023-02-28T23:05:31.576Z,0.30
2023-02-28T23:08:00.986Z,0.20
2023-02-28T23:10:29.887Z,0.20
2023-02-28T23:12:57.845Z,0.20
2023-02-28T23:15:25.706Z,0.20
2023-02-28T23:17:53.588Z,0.20
2023-02-28T23:20:22.677Z,0.10
2023-02-28T23:22:52.344Z,0.10
2023-02-28T23:25:21.223Z,0.10
2023-02-28T23:27:50.079Z,0.10
2023-02-28T23:30:18.507Z,0.10
2023-02-28T23:32:46.736Z,0.00
2023-02-28T23:35:14.655Z,0.00
2023-02-28T23:37:42.532Z,0.00
2023-02-28T23:40:13.789Z,-0.10
2023-02-28T23:42:41.717Z,-0.10
2023-02-28T23:45:11.555Z,-0.10
2023-02-28T23:47:39.512Z,-0.10
2023-02-28T23:50:08.161Z,-0.20
2023-02-28T23:52:36.114Z,-0.20
2023-02-28T23:55:04.611Z,-0.30
2023-02-28T23:57:35.711Z,-0.30
